createdAt,value
2023-03-17T00:01:19.089Z,4.80
2023-03-17T00:03:49.255Z,4.70
2023-03-17T00:06:20.412Z,4.80
2023-03-17T00:08:48.188Z,4.70
2023-03-17T00:11:18.212Z,4.80
2023-03-17T00:13:47.080Z,4.80
2023-03-17T00:16:19.999Z,4.90
2023-03-17T00:18:49.463Z,4.90
2023-03-17T00:21:22.544Z,4.90
2023-03-17T00:23:52.581Z,4.90
2023-03-17T00:26:20.761Z,4.90
2023-03-17T00:28:48.639Z,4.80
2023-03-17T00:31:20.954Z,4.80
2023-03-17T00:33:52.176Z,4.80
2023-03-17T00:36:22.607Z,4.70
2023-03-17T00:38:50.392Z,4.60
2023-03-17T00:41:18.405Z,4.60
2023-03-17T00:43:46.446Z,4.70
2023-03-17T00:46:18.547Z,4.60
2023-03-17T00:48:47.354Z,4.60
2023-03-17T00:51:16.367Z,4.60
2023-03-17T00:53:44.840Z,4.60
2023-03-17T00:56:15.456Z,4.50
2023-03-17T00:58:44.202Z,4.70
2023-03-17T01:01:12.478Z,4.80
2023-03-17T01:03:41.946Z,4.90
2023-03-17T01:06:12.355Z,5.10
2023-03-17T01:08:41.549Z,5.10
2023-03-17T01:11:16.260Z,5.10
2023-03-17T01:13:44.061Z,5.10
2023-03-17T01:16:12.586Z,5.10
2023-03-17T01:18:42.035Z,5.20
2023-03-17T01:21:09.901Z,5.10
2023-03-17T01:23:38.328Z,5.10
2023-03-17T01:26:07.605Z,5.10
2023-03-17T01:28:35.492Z,5.10
2023-03-17T01:31:03.787Z,5.10
2023-03-17T01:33:31.634Z,5.00
2023-03-17T01:36:00.794Z,5.10
2023-03-17T01:38:28.607Z,5.20
2023-03-17T01:40:56.698Z,5.20
2023-03-17T01:43:27.568Z,5.20
2023-03-17T01:46:27.385Z,5.10
2023-03-17T01:49:10.921Z,5.20
2023-03-17T01:51:48.683Z,5.10
2023-03-17T01:54:21.931Z,4.90
2023-03-17T01:56:52.735Z,4.80
2023-03-17T01:59:24.580Z,4.80
2023-03-17T02:01:58.262Z,4.80
2023-03-17T02:04:26.935Z,4.90
2023-03-17T02:06:58.760Z,4.70
2023-03-17T02:09:28.493Z,4.70
2023-03-17T02:11:57.254Z,4.70
2023-03-17T02:14:25.500Z,4.90
2023-03-17T02:16:53.704Z,4.80
2023-03-17T02:19:21.550Z,4.80
2023-03-17T02:21:52.454Z,4.90
2023-03-17T02:24:26.360Z,5.00
2023-03-17T02:26:56.589Z,5.00
2023-03-17T02:29:25.005Z,5.00
2023-03-17T02:31:53.416Z,5.10
2023-03-17T02:34:21.804Z,5.10
2023-03-17T02:36:50.984Z,5.10
2023-03-17T02:39:19.104Z,5.10
2023-03-17T02:41:47.030Z,5.10
2023-03-17T02:44:14.804Z,5.10
2023-03-17T02:46:42.684Z,5.00
2023-03-17T02:49:11.918Z,5.00
2023-03-17T02:51:39.700Z,5.00
2023-03-17T02:54:09.082Z,4.90
2023-03-17T02:56:36.868Z,4.90
2023-03-17T02:59:05.005Z,4.90
2023-03-17T03:01:33.807Z,5.00
2023-03-17T03:04:02.201Z,5.00
2023-03-17T03:06:29.985Z,5.00
2023-03-17T03:08:57.778Z,4.90
2023-03-17T03:11:27.884Z,4.80
2023-03-17T03:13:56.082Z,4.90
2023-03-17T03:16:23.854Z,4.80
2023-03-17T03:18:51.629Z,4.70
2023-03-17T03:21:19.795Z,4.50
2023-03-17T03:23:47.605Z,4.50
2023-03-17T03:26:15.415Z,4.50
2023-03-17T03:28:44.591Z,4.50
2023-03-17T03:31:13.734Z,4.60
2023-03-17T03:33:41.648Z,4.60
2023-03-17T03:36:10.337Z,4.60
2023-03-17T03:38:38.183Z,4.60
2023-03-17T03:41:06.360Z,4.50
2023-03-17T03:43:34.298Z,4.50
2023-03-17T03:46:03.510Z,4.50
2023-03-17T03:48:31.311Z,4.50
2023-03-17T03:51:00.398Z,4.50
2023-03-17T03:53:28.634Z,4.50
2023-03-17T03:55:56.602Z,4.40
2023-03-17T03:58:24.879Z,4.40
2023-03-17T04:00:52.671Z,4.50
2023-03-17T04:03:22.004Z,4.40
2023-03-17T04:05:49.787Z,4.50
2023-03-17T04:08:17.550Z,4.60
2023-03-17T04:10:45.548Z,4.60
2023-03-17T04:13:13.997Z,4.60
2023-03-17T04:15:42.441Z,4.50
2023-03-17T04:18:10.204Z,4.50
2023-03-17T04:20:39.473Z,4.40
2023-03-17T04:23:07.851Z,4.20
2023-03-17T04:25:35.798Z,4.10
2023-03-17T04:28:03.542Z,4.00
2023-03-17T04:30:31.723Z,4.10
2023-03-17T04:32:59.671Z,4.10
2023-03-17T04:35:27.975Z,4.10
2023-03-17T04:37:57.088Z,4.10
2023-03-17T04:40:25.036Z,4.10
2023-03-17T04:42:52.899Z,4.20
2023-03-17T04:45:20.937Z,4.20
2023-03-17T04:47:48.730Z,4.00
2023-03-17T04:50:17.873Z,3.90
2023-03-17T04:52:45.626Z,3.70
2023-03-17T04:55:14.841Z,3.60
2023-03-17T04:57:42.724Z,3.90
2023-03-17T05:00:13.166Z,3.80
2023-03-17T05:02:41.128Z,3.80
2023-03-17T05:05:09.867Z,3.70
2023-03-17T05:07:37.716Z,3.60
2023-03-17T05:10:06.537Z,3.50
2023-03-17T05:12:35.793Z,3.50
2023-03-17T05:15:05.235Z,3.50
2023-03-17T05:17:32.991Z,3.50
2023-03-17T05:20:00.845Z,3.50
2023-03-17T05:22:28.618Z,3.50
2023-03-17T05:24:56.399Z,3.70
2023-03-17T05:27:24.381Z,3.80
2023-03-17T05:29:53.686Z,3.70
2023-03-17T05:32:21.534Z,3.70
2023-03-17T05:34:49.913Z,3.60
2023-03-17T05:37:17.740Z,3.70
2023-03-17T05:39:45.579Z,3.70
2023-03-17T05:42:13.838Z,3.60
2023-03-17T05:44:41.671Z,3.60
2023-03-17T05:47:11.130Z,3.50
2023-03-17T05:49:38.944Z,3.50
2023-03-17T05:52:06.816Z,3.30
2023-03-17T05:54:34.620Z,3.40
2023-03-17T05:57:03.902Z,3.50
2023-03-17T05:59:32.095Z,3.40
2023-03-17T06:01:59.963Z,3.30
2023-03-17T06:06:57.522Z,3.30
2023-03-17T06:09:25.349Z,3.50
2023-03-17T06:11:53.088Z,3.60
2023-03-17T06:14:21.034Z,3.60
2023-03-17T06:16:48.885Z,3.60
2023-03-17T06:19:16.746Z,3.70
2023-03-17T06:21:46.053Z,3.80
2023-03-17T06:24:14.096Z,3.90
2023-03-17T06:26:42.421Z,4.00
2023-03-17T06:29:12.137Z,4.00
2023-03-17T06:31:42.118Z,4.00
2023-03-17T06:34:09.945Z,3.90
2023-03-17T06:36:39.143Z,3.90
2023-03-17T06:39:09.482Z,4.10
2023-03-17T06:41:37.380Z,4.20
2023-03-17T06:44:05.508Z,4.40
2023-03-17T06:46:33.988Z,4.50
2023-03-17T06:49:03.164Z,4.50
2023-03-17T06:51:32.419Z,4.40
2023-03-17T06:54:00.223Z,4.50
2023-03-17T06:56:30.686Z,4.60
2023-03-17T06:58:58.624Z,4.90
2023-03-17T07:01:27.046Z,4.90
2023-03-17T07:03:55.393Z,5.00
2023-03-17T07:06:24.269Z,5.20
2023-03-17T07:08:52.270Z,5.30
2023-03-17T07:11:20.320Z,5.40
2023-03-17T07:13:49.674Z,5.60
2023-03-17T07:16:19.476Z,5.70
2023-03-17T07:18:47.321Z,5.70
2023-03-17T07:21:15.554Z,5.80
2023-03-17T07:23:43.637Z,6.00
2023-03-17T07:26:11.413Z,6.10
2023-03-17T07:28:40.309Z,6.20
2023-03-17T07:31:11.483Z,6.30
2023-03-17T07:33:39.651Z,6.50
2023-03-17T07:36:08.990Z,6.60
2023-03-17T07:38:37.136Z,6.80
2023-03-17T07:41:09.678Z,7.00
2023-03-17T07:43:38.294Z,7.10
2023-03-17T07:46:07.334Z,7.30
2023-03-17T07:48:40.682Z,7.40
2023-03-17T07:51:11.029Z,7.40
2023-03-17T07:53:38.844Z,7.50
2023-03-17T07:56:07.206Z,7.60
2023-03-17T07:58:35.011Z,7.70
2023-03-17T08:01:03.367Z,7.90
2023-03-17T08:03:31.620Z,8.00
2023-03-17T08:06:00.998Z,8.10
2023-03-17T08:08:29.209Z,8.20
2023-03-17T08:11:03.463Z,8.30
2023-03-17T08:13:31.887Z,8.40
2023-03-17T08:16:00.001Z,8.60
2023-03-17T08:18:28.135Z,8.80
2023-03-17T08:20:55.971Z,9.30
2023-03-17T08:23:25.560Z,9.90
2023-03-17T08:25:57.822Z,10.80
2023-03-17T08:28:25.716Z,12.00
2023-03-17T08:30:54.260Z,13.30
2023-03-17T08:33:22.775Z,14.20
2023-03-17T08:35:51.521Z,15.10
2023-03-17T08:38:19.321Z,15.40
2023-03-17T08:40:50.497Z,15.70
2023-03-17T08:43:18.684Z,15.60
2023-03-17T08:45:46.574Z,15.70
2023-03-17T08:48:15.253Z,16.20
2023-03-17T08:50:43.126Z,16.50
2023-03-17T08:53:10.905Z,16.60
2023-03-17T08:55:38.778Z,16.90
2023-03-17T08:58:09.287Z,17.00
2023-03-17T09:00:37.132Z,17.30
2023-03-17T09:03:05.683Z,17.50
2023-03-17T09:05:35.617Z,17.60
2023-03-17T09:08:05.585Z,17.50
2023-03-17T09:10:33.956Z,16.70
2023-03-17T09:13:04.010Z,16.20
2023-03-17T09:15:34.622Z,15.90
2023-03-17T09:18:03.194Z,15.40
2023-03-17T09:20:31.480Z,15.00
2023-03-17T09:22:59.506Z,14.90
2023-03-17T09:25:27.465Z,14.60
2023-03-17T09:27:56.478Z,14.50
2023-03-17T09:30:26.452Z,14.60
2023-03-17T09:32:55.626Z,14.40
2023-03-17T09:35:23.443Z,14.40
2023-03-17T09:37:51.775Z,14.30
2023-03-17T09:40:22.419Z,14.70
2023-03-17T09:43:01.664Z,15.70
2023-03-17T09:45:35.315Z,16.80
2023-03-17T09:48:25.154Z,17.60
2023-03-17T09:50:57.956Z,17.70
2023-03-17T09:53:33.966Z,17.70
2023-03-17T09:56:06.570Z,18.10
2023-03-17T09:58:36.372Z,18.20
2023-03-17T10:01:05.909Z,18.30
2023-03-17T10:03:35.658Z,18.50
2023-03-17T10:06:34.427Z,18.40
2023-03-17T10:09:14.535Z,18.70
2023-03-17T10:11:44.071Z,19.10
2023-03-17T10:14:27.155Z,19.40
2023-03-17T10:17:01.804Z,19.40
2023-03-17T10:19:33.937Z,19.80
2023-03-17T10:22:05.034Z,19.90
2023-03-17T10:24:35.045Z,19.40
2023-03-17T10:27:06.361Z,19.10
2023-03-17T10:29:34.263Z,18.90
2023-03-17T10:32:02.158Z,18.60
2023-03-17T10:34:33.213Z,18.50
2023-03-17T10:37:04.790Z,18.20
2023-03-17T10:39:33.149Z,18.50
2023-03-17T10:42:09.642Z,18.90
2023-03-17T10:44:43.084Z,19.00
2023-03-17T10:47:24.042Z,19.00
2023-03-17T10:49:53.628Z,19.70
2023-03-17T10:52:24.251Z,20.30
2023-03-17T10:54:52.609Z,20.40
2023-03-17T10:57:20.804Z,20.20
2023-03-17T10:59:53.318Z,20.40
2023-03-17T11:02:27.833Z,20.50
2023-03-17T11:05:01.979Z,20.70
2023-03-17T11:07:35.289Z,20.60
2023-03-17T11:10:05.295Z,20.40
2023-03-17T11:12:39.305Z,20.40
2023-03-17T11:15:11.544Z,20.60
2023-03-17T11:17:43.528Z,20.90
2023-03-17T11:20:38.697Z,21.30
2023-03-17T11:23:11.975Z,20.80
2023-03-17T11:25:43.841Z,20.80
2023-03-17T11:28:20.916Z,20.70
2023-03-17T11:31:00.155Z,20.20
2023-03-17T11:33:41.022Z,19.80
2023-03-17T11:36:20.742Z,19.70
2023-03-17T11:39:00.074Z,19.40
2023-03-17T11:41:46.023Z,19.20
2023-03-17T11:44:31.516Z,19.00
2023-03-17T11:47:06.518Z,19.10
2023-03-17T11:49:38.644Z,19.30
2023-03-17T11:52:19.672Z,19.30
2023-03-17T11:54:54.170Z,19.30
2023-03-17T11:57:27.099Z,19.40
2023-03-17T11:59:59.559Z,19.20
2023-03-17T12:02:33.426Z,19.20
2023-03-17T12:05:05.043Z,19.40
2023-03-17T12:07:37.837Z,19.50
2023-03-17T12:10:17.284Z,19.60
2023-03-17T12:12:50.748Z,19.50
2023-03-17T12:15:25.529Z,19.40
2023-03-17T12:17:58.538Z,19.30
2023-03-17T12:20:34.008Z,19.20
2023-03-17T12:23:07.619Z,19.00
2023-03-17T12:25:42.426Z,19.20
2023-03-17T12:28:16.944Z,19.30
2023-03-17T12:30:50.815Z,19.40
2023-03-17T12:33:25.650Z,19.50
2023-03-17T12:35:53.633Z,19.50
2023-03-17T12:38:30.384Z,19.50
2023-03-17T12:41:16.258Z,19.60
2023-03-17T12:43:58.988Z,19.40
2023-03-17T12:46:48.025Z,19.40
2023-03-17T12:49:36.997Z,19.30
2023-03-17T12:52:20.508Z,19.10
2023-03-17T12:54:54.013Z,19.10
2023-03-17T12:57:24.292Z,19.30
2023-03-17T13:00:01.414Z,19.50
2023-03-17T13:02:37.437Z,19.50
2023-03-17T13:05:10.018Z,19.30
2023-03-17T13:07:42.927Z,19.40
2023-03-17T13:10:22.293Z,19.40
2023-03-17T13:13:13.163Z,19.40
2023-03-17T13:16:06.506Z,19.40
2023-03-17T13:18:53.261Z,19.40
2023-03-17T13:21:24.996Z,19.30
2023-03-17T13:23:59.286Z,19.40
2023-03-17T13:26:55.453Z,19.40
2023-03-17T13:29:39.600Z,19.60
2023-03-17T13:32:33.555Z,19.50
2023-03-17T13:35:20.157Z,19.50
2023-03-17T13:38:13.425Z,19.50
2023-03-17T13:40:53.286Z,19.50
2023-03-17T13:43:58.202Z,19.70
2023-03-17T13:46:36.263Z,19.80
2023-03-17T13:49:16.624Z,19.80
2023-03-17T13:51:59.409Z,19.80
2023-03-17T13:54:33.496Z,19.70
2023-03-17T13:57:25.760Z,19.80
2023-03-17T14:00:03.744Z,19.80
2023-03-17T14:02:35.002Z,19.70
2023-03-17T14:05:06.208Z,19.60
2023-03-17T14:07:44.614Z,19.70
2023-03-17T14:10:19.533Z,19.70
2023-03-17T14:12:55.914Z,19.70
2023-03-17T14:15:29.422Z,19.60
2023-03-17T14:18:03.149Z,19.70
2023-03-17T14:20:31.278Z,19.70
2023-03-17T14:23:01.872Z,19.60
2023-03-17T14:25:34.268Z,19.60
2023-03-17T14:28:05.340Z,19.50
2023-03-17T14:30:36.142Z,19.40
2023-03-17T14:33:07.420Z,19.40
2023-03-17T14:35:37.425Z,19.40
2023-03-17T14:38:18.246Z,19.30
2023-03-17T14:40:46.181Z,19.30
2023-03-17T14:43:14.686Z,19.20
2023-03-17T14:45:52.476Z,19.20
2023-03-17T14:48:26.522Z,19.30
2023-03-17T14:50:56.155Z,19.30
2023-03-17T14:53:26.381Z,19.30
2023-03-17T14:55:54.605Z,19.40
2023-03-17T14:58:25.593Z,19.40
2023-03-17T15:00:58.924Z,19.50
2023-03-17T15:03:30.324Z,19.40
2023-03-17T15:06:07.362Z,19.30
2023-03-17T15:08:46.144Z,19.30
2023-03-17T15:11:21.269Z,19.10
2023-03-17T15:13:50.776Z,19.00
2023-03-17T15:16:23.559Z,18.90
2023-03-17T15:18:58.296Z,18.90
2023-03-17T15:21:33.778Z,18.80
2023-03-17T15:24:06.818Z,18.80
2023-03-17T15:26:37.861Z,18.80
2023-03-17T15:29:05.768Z,18.80
2023-03-17T15:31:34.933Z,18.50
2023-03-17T15:34:02.942Z,18.50
2023-03-17T15:36:33.191Z,18.50
2023-03-17T15:39:01.333Z,18.20
2023-03-17T15:41:29.286Z,18.10
2023-03-17T15:43:57.138Z,18.10
2023-03-17T15:46:30.668Z,17.90
2023-03-17T15:49:00.325Z,17.80
2023-03-17T15:51:28.249Z,17.90
2023-03-17T15:53:56.119Z,17.90
2023-03-17T15:56:23.892Z,17.70
2023-03-17T15:58:52.311Z,17.60
2023-03-17T16:01:21.197Z,17.60
2023-03-17T16:03:49.686Z,17.60
2023-03-17T16:06:21.329Z,17.50
2023-03-17T16:08:50.664Z,17.50
2023-03-17T16:11:20.044Z,17.40
2023-03-17T16:13:48.586Z,17.50
2023-03-17T16:16:22.615Z,17.40
2023-03-17T16:18:52.488Z,17.50
2023-03-17T16:21:22.196Z,17.50
2023-03-17T16:23:50.738Z,17.40
2023-03-17T16:26:18.774Z,17.30
2023-03-17T16:28:49.101Z,17.10
2023-03-17T16:31:23.778Z,17.10
2023-03-17T16:33:54.008Z,17.00
2023-03-17T16:36:24.601Z,17.00
2023-03-17T16:38:52.899Z,16.80
2023-03-17T16:41:22.803Z,16.60
2023-03-17T16:43:54.997Z,16.50
2023-03-17T16:46:23.361Z,16.50
2023-03-17T16:48:52.211Z,16.40
2023-03-17T16:51:20.591Z,16.40
2023-03-17T16:53:49.757Z,16.40
2023-03-17T16:56:20.454Z,16.20
2023-03-17T16:58:49.211Z,16.10
2023-03-17T17:01:20.147Z,16.00
2023-03-17T17:03:48.468Z,15.90
2023-03-17T17:06:16.793Z,15.80
2023-03-17T17:08:45.684Z,15.60
2023-03-17T17:11:15.982Z,15.50
2023-03-17T17:13:45.381Z,15.40
2023-03-17T17:16:21.718Z,15.30
2023-03-17T17:18:49.606Z,15.20
2023-03-17T17:21:17.555Z,15.20
2023-03-17T17:23:45.317Z,15.20
2023-03-17T17:26:14.442Z,15.20
2023-03-17T17:28:42.702Z,15.20
2023-03-17T17:31:11.125Z,15.10
2023-03-17T17:33:40.005Z,15.10
2023-03-17T17:36:13.635Z,15.20
2023-03-17T17:38:41.700Z,15.30
2023-03-17T17:41:11.518Z,15.10
2023-03-17T17:43:41.023Z,15.10
2023-03-17T17:46:12.364Z,14.90
2023-03-17T17:48:40.343Z,15.00
2023-03-17T17:51:08.115Z,14.80
2023-03-17T17:53:36.119Z,14.80
2023-03-17T17:56:04.656Z,14.70
2023-03-17T17:58:32.474Z,14.70
2023-03-17T18:01:02.206Z,14.70
2023-03-17T18:03:32.063Z,14.60
2023-03-17T18:06:00.820Z,14.60
2023-03-17T18:08:28.593Z,14.60
2023-03-17T18:10:57.226Z,14.50
2023-03-17T18:13:25.445Z,14.40
2023-03-17T18:15:53.315Z,14.30
2023-03-17T18:18:22.470Z,14.30
2023-03-17T18:20:50.814Z,14.30
2023-03-17T18:23:20.118Z,14.20
2023-03-17T18:25:48.116Z,14.00
2023-03-17T18:28:16.235Z,13.80
2023-03-17T18:30:45.494Z,13.90
2023-03-17T18:33:19.581Z,13.80
2023-03-17T18:35:52.126Z,13.70
2023-03-17T18:38:20.227Z,13.60
2023-03-17T18:40:48.097Z,13.60
2023-03-17T18:43:15.863Z,13.60
2023-03-17T18:45:44.535Z,13.50
2023-03-17T18:48:12.380Z,13.40
2023-03-17T18:50:40.212Z,13.40
2023-03-17T18:53:09.487Z,13.50
2023-03-17T18:55:37.247Z,13.50
2023-03-17T18:58:06.304Z,13.50
2023-03-17T19:00:34.746Z,13.60
2023-03-17T19:03:02.712Z,13.70
2023-03-17T19:05:30.810Z,13.90
2023-03-17T19:07:58.601Z,14.00
2023-03-17T19:10:27.722Z,13.90
2023-03-17T19:12:56.150Z,13.90
2023-03-17T19:15:24.212Z,13.90
2023-03-17T19:17:52.156Z,13.90
2023-03-17T19:20:20.447Z,13.80
2023-03-17T19:22:48.360Z,13.90
2023-03-17T19:25:17.154Z,13.90
2023-03-17T19:27:46.425Z,13.70
2023-03-17T19:30:14.966Z,13.70
2023-03-17T19:32:42.754Z,13.60
2023-03-17T19:35:11.600Z,13.50
2023-03-17T19:37:39.437Z,13.50
2023-03-17T19:40:09.694Z,13.30
2023-03-17T19:42:37.688Z,13.20
2023-03-17T19:45:08.190Z,13.30
2023-03-17T19:47:36.088Z,13.20
2023-03-17T19:50:04.291Z,13.20
2023-03-17T19:52:32.026Z,13.10
2023-03-17T19:54:59.971Z,13.30
2023-03-17T19:57:27.776Z,13.30
2023-03-17T19:59:55.538Z,13.10
2023-03-17T20:02:24.812Z,13.20
2023-03-17T20:04:52.628Z,13.40
2023-03-17T20:07:20.669Z,13.60
2023-03-17T20:09:49.359Z,13.70
2023-03-17T20:12:17.258Z,13.80
2023-03-17T20:14:45.057Z,13.90
2023-03-17T20:17:14.076Z,14.00
2023-03-17T20:19:43.152Z,14.00
2023-03-17T20:22:11.167Z,14.10
2023-03-17T20:24:39.152Z,14.30
2023-03-17T20:27:08.336Z,14.30
2023-03-17T20:29:36.438Z,14.40
2023-03-17T20:32:04.579Z,14.50
2023-03-17T20:34:34.482Z,14.50
2023-03-17T20:37:04.104Z,14.50
2023-03-17T20:39:32.461Z,14.50
2023-03-17T20:42:01.528Z,14.50
2023-03-17T20:44:29.295Z,14.50
2023-03-17T20:46:57.733Z,14.50
2023-03-17T20:49:25.594Z,14.60
2023-03-17T20:51:53.327Z,14.60
2023-03-17T20:54:23.382Z,14.60
2023-03-17T20:56:53.582Z,14.60
2023-03-17T20:59:21.415Z,14.40
2023-03-17T21:01:49.921Z,14.40
2023-03-17T21:04:20.669Z,14.40
2023-03-17T21:06:49.776Z,14.40
2023-03-17T21:09:17.713Z,14.40
2023-03-17T21:11:47.892Z,14.40
2023-03-17T21:14:16.454Z,14.40
2023-03-17T21:16:46.298Z,14.40
2023-03-17T21:19:15.173Z,14.30
2023-03-17T21:21:43.032Z,14.40
2023-03-17T21:24:23.953Z,14.40
2023-03-17T21:26:53.079Z,14.10
2023-03-17T21:29:21.281Z,14.00
2023-03-17T21:31:49.207Z,14.00
2023-03-17T21:34:17.244Z,14.00
2023-03-17T21:36:45.241Z,14.10
2023-03-17T21:39:13.008Z,14.10
2023-03-17T21:41:40.847Z,14.10
2023-03-17T21:44:11.813Z,14.10
2023-03-17T21:46:39.725Z,14.10
2023-03-17T21:49:07.963Z,14.10
2023-03-17T21:51:36.030Z,14.10
2023-03-17T21:54:05.267Z,14.10
2023-03-17T21:56:33.432Z,13.90
2023-03-17T21:59:01.320Z,14.00
2023-03-17T22:01:30.552Z,13.90
2023-03-17T22:03:59.542Z,13.90
2023-03-17T22:06:29.341Z,13.90
2023-03-17T22:08:57.379Z,13.90
2023-03-17T22:11:25.138Z,13.80
2023-03-17T22:13:53.163Z,13.90
2023-03-17T22:16:21.519Z,13.80
2023-03-17T22:18:50.744Z,13.70
2023-03-17T22:21:18.757Z,13.70
2023-03-17T22:23:46.528Z,13.60
2023-03-17T22:26:16.012Z,13.70
2023-03-17T22:28:44.836Z,13.60
2023-03-17T22:31:14.265Z,13.50
2023-03-17T22:33:42.791Z,13.50
2023-03-17T22:36:12.714Z,13.40
2023-03-17T22:38:41.304Z,13.30
2023-03-17T22:41:13.502Z,13.50
2023-03-17T22:43:41.826Z,13.50
2023-03-17T22:46:10.145Z,13.40
2023-03-17T22:48:39.800Z,13.40
2023-03-17T22:51:10.089Z,13.40
2023-03-17T22:53:40.090Z,13.20
2023-03-17T22:56:09.504Z,13.20
2023-03-17T22:58:37.504Z,13.40
2023-03-17T23:01:06.751Z,13.40
2023-03-17T23:03:35.357Z,13.40
2023-03-17T23:06:04.812Z,13.50
2023-03-17T23:08:35.232Z,13.50
2023-03-17T23:11:06.992Z,13.30
2023-03-17T23:13:35.215Z,13.20
2023-03-17T23:16:04.599Z,13.30
2023-03-17T23:18:32.775Z,13.30
2023-03-17T23:21:01.443Z,13.20
2023-03-17T23:23:29.775Z,13.10
2023-03-17T23:25:57.604Z,13.10
2023-03-17T23:28:27.226Z,13.20
2023-03-17T23:30:55.388Z,13.10
2023-03-17T23:33:25.414Z,13.10
2023-03-17T23:35:53.800Z,13.00
2023-03-17T23:38:21.852Z,13.00
2023-03-17T23:40:50.866Z,12.90
2023-03-17T23:43:19.476Z,12.80
2023-03-17T23:45:53.881Z,12.70
2023-03-17T23:48:22.438Z,12.60
2023-03-17T23:50:52.531Z,12.60
2023-03-17T23:53:21.213Z,12.40
2023-03-17T23:55:49.166Z,12.40
2023-03-17T23:58:17.201Z,12.50
